Tiempo atmosférico en la estación meteorológica de Cabo Busto, Asturias (63 m.)



Fecha
DESCASC
Temp. máxima en grados centígrados (hora)
DESCASC
Temp. mínima en grados centígrados (hora)
DESCASC
Temp. media en grados centígrados
DESCASC
Racha de viento máxima en m/sg (hora)
DESCASC
Velocidad máxima media en intervalos de 10 minutos(hora)
DESCASC
Precipitaciones diarias en mm
DESCASC
Precipitaciones de 00:00 a 06:00 en mm
DESCASC
Precipitaciones de 06:00 a 12:00 en mm
DESCASC
Precipitaciones de 12:00 a 18:00 en mm
DESCASC
Precipitaciones de 18:00 a 24:00 en mm
DESCASC
23-05-2018 18.2 (15:00) 12.5 (07:50) 15.4 13.33 (17:10) 7.78 (16:40) 0 0 0 0 0
22-05-2018 19.1 (16:10) 10.1 (06:50) 14.6 9.44 (17:40) 6.11 (17:50) 0.2 0 0.2 0 0
21-05-2018 18.4 (17:40) 10.7 (07:10) 14.5 6.67 (14:00) 3.89 (16:00) 0 0 0 0 0
20-05-2018 17.3 (15:30) 10.2 (00:00) 13.7 12.22 (14:40) 7.78 (13:50) 0 0 0 0 0
19-05-2018 17.4 (13:50) 13.2 (00:00) 15.3 11.39 (17:30) 7.78 (17:20) 0 0 0 0 0
18-05-2018 17.4 (13:50) 10.9 (00:00) 14.1 11.94 (16:50) 7.22 (18:10) 0 0 0 0 0
17-05-2018 17.4 (15:50) 9.5 (00:00) 13.4 8.89 (12:40) 5.28 (00:10) 0 0 0 0 0
16-05-2018 16.9 (16:00) 12.1 (00:00) 14.5 10.28 (20:00) 6.11 (20:00) 0.2 0.2 0 0 0
15-05-2018 16.6 (14:00) 6.7 (00:00) 11.7 13.89 (21:40) 6.11 (07:50) 0.2 0 0 0 0.2
14-05-2018 16.7 (16:00) 10 (00:00) 13.4 17.5 (03:20) 12.22 (03:00) 7 4 3 0 0
13-05-2018 14 (15:50) 9.4 (00:00) 11.7 15.56 (10:50) 10.83 (06:10) 2.2 0.4 0 0.4 1.4
12-05-2018 14.2 (16:20) 8.8 (00:00) 11.5 -- (--) -- (--) 1.2 0.4 0.4 0 0.4
11-05-2018 17.6 (16:20) 9.7 (03:30) 13.7 11.94 (18:10) 8.89 (18:20) 5 0 0 0 5
10-05-2018 15.1 (15:10) 11.3 (00:00) 13.2 17.5 (19:20) 9.44 (19:20) 2.6 2.6 0 0 0
09-05-2018 15.1 (14:50) 11.6 (00:00) 13.4 8.33 (18:40) 5.56 (21:40) 1 0 0.8 0.2 0
08-05-2018 16.2 (18:10) 12.3 (00:00) 14.3 11.39 (13:30) 8.61 (13:30) 0 0 0 0 0
07-05-2018 16.8 (14:50) 12.7 (00:00) 14.7 5.28 (23:59) 3.61 (23:59) 0 0 0 0 0
06-05-2018 17.3 (16:30) 9.2 (00:00) 13.2 10.83 (00:10) 6.67 (00:10) 0 0 0 0 0
05-05-2018 16.2 (15:50) 7.8 (00:00) 12 13.33 (21:00) 7.22 (21:00) 0 0 0 0 0
04-05-2018 15 (15:00) 7.4 (00:00) 11.2 14.44 (18:30) 7.5 (18:30) 0 0 0 0 0
03-05-2018 15.5 (14:50) 8.6 (00:00) 12.1 7.22 (22:50) 3.89 (07:50) 2 2 0 0 0
02-05-2018 16.5 (15:10) 9.6 (00:00) 13.1 13.61 (19:50) 9.72 (16:40) 12.4 0 0.2 0.2 12
01-05-2018 14.8 (15:50) 4.8 (07:30) 9.8 6.67 (08:30) 5.28 (05:50) 0 0 0 0 0
30-04-2018 13.7 (16:50) 7.9 (00:00) 10.8 13.33 (09:00) 8.89 (03:20) 4.6 1 1.4 2.2 0
29-04-2018 14.2 (15:10) 5.1 (00:00) 9.6 14.72 (16:00) 11.11 (18:10) 8 0 0 4.4 3.6
28-04-2018 13.6 (16:10) 8.2 (00:00) 10.9 10 (19:10) 5.83 (22:30) 0.8 0 0.8 0 0

Gráficas

Temp. máximas Temp. mínimas Temp. medias Precipitaciones Rachas de viento máximas Velocidades máximas media en intervalos de 10 minutos

Datos horarios

Fecha y hora oficial Temperatura (ºC) Velocidad del viento (km/h) Dirección del viento Racha (km/h) Dirección de racha Precipitación (mm) Presión (hPa) Tendencia (hPa) Humedad (%)
2018-05-27 23:00:00 -- -- -- -- -- -- -- -- --
2018-05-27 22:00:00 -- -- -- -- -- -- -- -- --
2018-05-27 21:00:00 14.9 8 Oeste 15 Oeste 0 1009.7 0.4 85
2018-05-27 20:00:00 15.3 7 Oeste 14 Oeste 0 1009.3 0.2 84
2018-05-27 19:00:00 15.5 8 Oeste 13 Oeste 0 1009.4 0.4 85
2018-05-27 18:00:00 15.4 5 Noroeste 14 Norte 0 1009.3 0.2 83
2018-05-27 17:00:00 16.3 3 Oeste 9 Nordeste 0 1009.1 0.1 81
2018-05-27 16:00:00 16.1 6 Este 9 Este 0 1009 0.1 80
2018-05-27 15:00:00 15.6 2 Norte 9 Noroeste 0 1009.1 0.3 81
2018-05-27 14:00:00 16.4 4 Noroeste 9 Noroeste 0 1009 0.4 80
2018-05-27 13:00:00 16.3 4 Noroeste 8 Noroeste 0 1008.9 0.5 80
2018-05-27 12:00:00 16.7 4 Oeste 8 Oeste 0 1008.8 1.1 85
2018-05-27 11:00:00 15.1 5 Oeste 7 Oeste 0 1008.6 1.2 86
2018-05-27 10:00:00 14.7 4 Sur 12 Oeste 0 1008.4 1.4 87
2018-05-27 09:00:00 14.4 10 Oeste 15 Oeste 0 1007.7 1.2 88
2018-05-27 08:00:00 14.3 7 Sudoeste 10 Oeste 0 1007.4 0.8 89
2018-05-27 07:00:00 14.2 8 Sudoeste 19 Sudoeste 0 1007 0.3 90
2018-05-27 06:00:00 14.2 13 Oeste 18 Oeste 0 1006.5 -0.7 91
2018-05-27 05:00:00 14.3 13 Oeste 20 Oeste 0 1006.6 -0.7 91
2018-05-27 04:00:00 14.4 15 Oeste 23 Oeste 0 1006.7 -0.8 91
2018-05-27 03:00:00 14.4 17 Oeste 22 Oeste 0 1007.2 -0.2 91
2018-05-27 02:00:00 14.5 16 Oeste 21 Oeste 0 1007.3 0 91
2018-05-27 01:00:00 14.5 17 Oeste 27 Oeste 0 1007.5 0.7 92
2018-05-27 00:00:00 14.6 21 Oeste 28 Oeste 0 1007.4 1.1 92
2018-05-26 23:00:00 14.5 20 Oeste 26 Oeste 0 1007.3 1.4 92
2018-05-26 22:00:00 14.5 22 Oeste 36 Oeste 0 1006.8 1.3 92
2018-05-26 21:00:00 14.5 27 Oeste 39 Oeste 0 1006.3 0.8 92
2018-05-26 20:00:00 14.4 24 Oeste 38 Oeste 0 1005.9 0.3 91
2018-05-26 19:00:00 15 24 Oeste 46 Oeste 0 1005.5 -0.3 91
2018-05-26 18:00:00 15.8 24 Oeste 44 Oeste 0 1005.5 -0.5 91
2018-05-26 17:00:00 15.2 20 Oeste 39 Oeste 0 1005.6 -0.1 93
2018-05-26 16:00:00 14.9 21 Oeste 35 Oeste 0 1005.8 0.2 93
2018-05-26 15:00:00 15 20 Oeste 32 Oeste 0 1006 0.3 93
2018-05-26 14:00:00 14.8 18 Oeste 26 Oeste 0 1005.7 0.2 93
2018-05-26 13:00:00 14.3 16 Oeste 24 Oeste 0 1005.6 0 93
2018-05-26 12:00:00 14.3 12 Oeste 20 Oeste 0 1005.7 0.3 93
2018-05-26 11:00:00 14.2 18 Oeste 23 Sudoeste 0 1005.5 0.1 93
2018-05-26 10:00:00 14.2 12 Oeste 15 Sudoeste 0 1005.6 0.3 93
2018-05-26 09:00:00 14.1 6 Oeste 15 Oeste 0 1005.4 0 93
2018-05-26 08:00:00 14.1 12 Oeste 17 Sudoeste 0 1005.4 -0.2 93
2018-05-26 07:00:00 14.1 13 Sudoeste 16 Sudoeste 0 1005.3 -0.8 93
2018-05-26 06:00:00 14.1 10 Sudoeste 15 Oeste 0 1005.4 -1.1 93
2018-05-26 05:00:00 14.1 8 Sudoeste 11 Sudoeste 0 1005.6 -1.4 93
2018-05-26 04:00:00 14 6 Sudoeste 10 Sur 0 1006.1 -1 93
2018-05-26 03:00:00 14.2 5 Sur 13 Este 0 1006.5 -0.9 93
2018-05-26 02:00:00 14.3 7 Este 26 Noroeste 0 1007 -0.6 93
2018-05-26 01:00:00 15 14 Norte 28 Noroeste 0 1007.1 0.1 93
2018-05-26 00:00:00 15.1 17 Noroeste 30 Noroeste 0 1007.4 0.7 92
2018-05-25 23:00:00 15.1 5 Sudoeste 23 Nordeste 0 1007.6 1 92
2018-05-25 22:00:00 15.3 7 Oeste 21 Nordeste 0 1007 0.4 92
2018-05-25 21:00:00 15.2 7 Sudoeste 23 Noroeste 0 1006.7 -0.1 92
2018-05-25 20:00:00 15.3 7 Noroeste 22 Norte 0 1006.6 -0.3 92
2018-05-25 19:00:00 15.2 6 Noroeste 18 Nordeste 0 1006.6 -0.7 92
2018-05-25 18:00:00 15.1 7 Noroeste 19 Norte 0 1006.8 -0.5 92
2018-05-25 17:00:00 15.1 8 Nordeste 17 Nordeste 0 1006.9 -0.6 92
2018-05-25 16:00:00 14.9 8 Este 22 Nordeste 0 1007.3 -0.7 92
2018-05-25 15:00:00 14.8 15 Nordeste 32 Nordeste 0 1007.3 -0.4 92
2018-05-25 14:00:00 14.7 12 Norte 30 Nordeste 0 1007.5 -0.2 92
2018-05-25 13:00:00 15 14 Norte 39 Nordeste 0 1008 1 92
2018-05-25 12:00:00 15 10 Oeste 27 Nordeste 0 1007.7 0.8 92
2018-05-25 11:00:00 14.9 10 Norte 33 Sudoeste 0 1007.7 1.2 91
2018-05-25 10:00:00 15.4 12 Sudoeste 31 Sudoeste 0 1007 0.4 91
2018-05-25 09:00:00 15.7 11 Oeste 27 Oeste 0 1006.9 0.3 91
2018-05-25 08:00:00 16.1 9 Noroeste 30 Nordeste 0 1006.5 -0.7 91
2018-05-25 07:00:00 15.8 7 Noroeste 26 Nordeste 0 1006.6 -0.9 90
2018-05-25 06:00:00 15.7 15 Nordeste 29 Nordeste 0 1006.6 -1.6 90
2018-05-25 05:00:00 15.4 13 Norte 31 Nordeste 0 1007.2 -1.4 90
2018-05-25 04:00:00 15.2 6 Noroeste 22 Nordeste 0 1007.5 -1.1 91
2018-05-25 03:00:00 15.3 13 Nordeste 26 Nordeste 0 1008.2 -0.2 91
2018-05-25 02:00:00 15.2 15 Nordeste 27 Nordeste 0 1008.6 0.3 91
2018-05-25 01:00:00 15.5 6 Nordeste 22 Nordeste 0 1008.6 0.3 91
2018-05-25 00:00:00 15.8 19 Nordeste 27 Nordeste 0 1008.4 -0.2 91
2018-05-24 23:00:00 15.7 5 Oeste 25 Nordeste 0 1008.3 0.1 91
2018-05-24 22:00:00 15.8 14 Nordeste 27 Nordeste 0 1008.3 0.2 90
2018-05-24 21:00:00 16 15 Nordeste 25 Nordeste 0 1008.6 0.6 89
2018-05-24 20:00:00 16.3 13 Nordeste 18 Nordeste 0 1008.2 0.5 88
2018-05-24 19:00:00 16.4 10 Nordeste 19 Nordeste 0 1008.1 0 88
2018-05-24 18:00:00 16.9 6 Norte 27 Nordeste 0 1008 -0.2 86
2018-05-24 17:00:00 17.4 14 Nordeste 26 Nordeste 0 1007.7 -0.6 85
2018-05-24 16:00:00 17.8 14 Nordeste 23 Nordeste 0 1008.1 -0.6 84
2018-05-24 15:00:00 18.1 14 Nordeste 24 Nordeste 0 1008.2 -0.5 84
2018-05-24 14:00:00 17.7 10 Nordeste 20 Este 0 1008.3 -0.4 85
2018-05-24 13:00:00 17.5 8 Nordeste 14 Nordeste 0 1008.7 -0.1 88
2018-05-24 12:00:00 17.4 6 Nordeste 12 Este 0 1008.7 0 88
2018-05-24 11:00:00 16.7 5 Nordeste 8 Nordeste 0 1008.7 0.4 89
2018-05-24 10:00:00 16.2 3 Nordeste 9 Nordeste 0 1008.8 0.7 90
2018-05-24 09:00:00 16 5 Nordeste 8 Nordeste 0 1008.7 0.4 90
2018-05-24 08:00:00 15.6 6 Este 10 Este 0 1008.3 -0.1 90
2018-05-24 07:00:00 15.7 5 Este 9 Este 0 1008.1 -0.5 90
2018-05-24 06:00:00 15.7 3 Nordeste 4 Nordeste 0 1008.3 -0.6 90
2018-05-24 05:00:00 15.6 2 Sudeste 5 Sudeste 0 1008.4 -0.8 90
2018-05-24 04:00:00 15.7 0 Calma 9 Sudoeste 0 1008.6 -0.9 90
2018-05-24 03:00:00 15.6 5 Sudoeste 9 Este 0 1008.9 -0.7 90
2018-05-24 02:00:00 15.6 5 Sudeste 11 Este 0 1009.2 -0.2 89
2018-05-24 01:00:00 16 6 Este 9 Este 0 1009.5 0.6 89
2018-05-24 00:00:00 16 6 Sur 8 Sur 0 1009.6 1 89
2018-05-23 23:00:00 15.8 3 Sudoeste 14 Este 0 1009.4 1.3 89
2018-05-23 22:00:00 16 9 Este 24 Este 0 1008.9 1.2 89
2018-05-23 21:00:00 15.9 10 Este 28 Nordeste 0 1008.6 0.6 89
2018-05-23 20:00:00 16.1 17 Nordeste 36 Nordeste 0 1008.1 0 88
2018-05-23 19:00:00 16.4 21 Nordeste 41 Nordeste 0 1007.7 -0.9 87
2018-05-23 18:00:00 16.6 21 Nordeste 48 Nordeste 0 1008 -1 86
2018-05-23 17:00:00 17.3 26 Nordeste 45 Nordeste 0 1008.1 -1.1 83
2018-05-23 16:00:00 17.4 23 Nordeste 42 Nordeste 0 1008.6 -0.8 82
2018-05-23 15:00:00 17.9 20 Nordeste 36 Nordeste 0 1009 -0.6 80
2018-05-23 14:00:00 17.8 17 Nordeste 36 Nordeste 0 1009.2 -0.4 78
2018-05-23 13:00:00 17.7 19 Nordeste 32 Nordeste 0 1009.4 0 78
2018-05-23 12:00:00 17.6 15 Nordeste 26 Nordeste 0 1009.6 0.1 77
2018-05-23 11:00:00 17.2 12 Este 32 Nordeste 0 1009.6 0.2 79
2018-05-23 10:00:00 16.1 15 Este 28 Este 0 1009.4 0.3 82
2018-05-23 09:00:00 14.8 9 Nordeste 14 Este 0 1009.5 0.6 84
2018-05-23 08:00:00 12.7 10 Este 16 Este 0 1009.4 0.5 87
2018-05-23 07:00:00 14.1 9 Este 18 Este 0 1009.1 0 88
2018-05-23 06:00:00 13.8 12 Este 19 Nordeste 0 1008.9 -0.6 89
2018-05-23 05:00:00 14.1 10 Este 20 Este 0 1008.9 -0.9 88
2018-05-23 04:00:00 13.2 9 Este 18 Este 0 1009.1 -0.9 88
2018-05-23 03:00:00 13.7 8 Este 17 Este 0 1009.5 -0.5 88
2018-05-23 02:00:00 14.2 9 Este 14 Este 0 1009.8 0 90
2018-05-23 01:00:00 14.8 6 Este 25 Este 0 1010 0.9 90
2018-05-23 00:00:00 15.5 19 Este 27 Nordeste 0 1010 1.2 90
2018-05-22 23:00:00 15.5 13 Nordeste 24 Nordeste 0 1009.8 1.6 89
2018-05-22 22:00:00 15.5 11 Nordeste 26 Nordeste 0 1009.1 0.9 88
2018-05-22 21:00:00 16.1 11 Nordeste 31 Nordeste 0 1008.8 1 86
2018-05-22 20:00:00 16.6 12 Norte 33 Nordeste 0 1008.2 -0.1 85
2018-05-22 19:00:00 17.6 8 Norte 29 Norte 0 1008.2 -0.1 82
2018-05-22 18:00:00 17.9 18 Nordeste 34 Nordeste 0 1007.8 -0.5 80
2018-05-22 17:00:00 18.3 16 Nordeste 28 Nordeste 0 1008.3 0.1 79
2018-05-22 16:00:00 18.6 9 Norte 21 Nordeste 0 1008.3 -0.1 78
2018-05-22 15:00:00 18 5 Norte 13 Nordeste 0 1008.3 -0.3 82
2018-05-22 14:00:00 16.7 6 Nordeste 19 Nordeste 0 1008.2 -0.1 81
2018-05-22 13:00:00 17.3 8 Nordeste 15 Nordeste 0 1008.4 0.5 78
2018-05-22 12:00:00 16.2 4 Norte 9 Oeste 0 1008.6 1.2 83
2018-05-22 11:00:00 14.7 5 Oeste 11 Oeste 0.2 1008.3 1.3 85
2018-05-22 10:00:00 15.6 8 Oeste 21 Sudoeste 0 1007.9 1.7 82
2018-05-22 09:00:00 13.8 6 Sudeste 15 Sudeste 0 1007.4 1.6 86
2018-05-22 08:00:00 11 13 Sudeste 17 Sudeste 0 1007 1.1 88
2018-05-22 07:00:00 10.2 14 Sudeste 18 Sudeste 0 1006.2 0.3 88
2018-05-22 06:00:00 10.5 13 Sudeste 18 Sudeste 0 1005.8 -0.5 88
2018-05-22 05:00:00 11.3 15 Sudeste 22 Sudeste 0 1005.9 -0.7 87
2018-05-22 04:00:00 11.6 16 Sudeste 21 Sudeste 0 1005.9 -0.7 87
2018-05-22 03:00:00 11.9 13 Sudeste 19 Sudeste 0 1006.3 -0.3 88
2018-05-22 02:00:00 12.7 12 Sudeste 15 Sudeste 0 1006.6 0.4 88
2018-05-22 01:00:00 13.2 9 Sudeste 11 Sudeste 0 1006.6 0.8 88
2018-05-22 00:00:00 13.7 8 Este 9 Este 0 1006.6 1.4 88
2018-05-21 23:00:00 14.4 3 Sur 8 Oeste 0 1006.2 1.6 85
2018-05-21 22:00:00 15.6 2 Oeste 11 Sudoeste 0 1005.8 1.5 83
2018-05-21 21:00:00 16.7 4 Oeste 10 Oeste 0 1005.2 1.1 82
2018-05-21 20:00:00 16.9 4 Nordeste 15 Nordeste 0 1004.6 0.6 80
2018-05-21 19:00:00 17.5 9 Nordeste 17 Norte 0 1004.3 0.4 78
2018-05-21 18:00:00 17.6 7 Nordeste 16 Norte 0 1004.1 -0.1 79
2018-05-21 17:00:00 17.8 7 Nordeste 21 Nordeste 0 1004 -0.4 77
2018-05-21 16:00:00 17.7 14 Nordeste 21 Nordeste 0 1003.9 -0.7 77
2018-05-21 15:00:00 17.9 10 Norte 20 Nordeste 0 1004.2 -0.1 77
2018-05-21 14:00:00 17.9 9 Norte 24 Nordeste 0 1004.4 0.2 78
2018-05-21 13:00:00 17.7 9 Nordeste 15 Nordeste 0 1004.6 0.6 77
2018-05-21 12:00:00 17 4 Norte 8 Nordeste 0 1004.3 0.7 75
2018-05-21 11:00:00 16.1 4 Oeste 6 Oeste 0 1004.2 0.7 76
2018-05-21 10:00:00 15.9 4 Oeste 7 Sudeste 0 1004 0.7 78
2018-05-21 09:00:00 13.5 5 Sudeste 12 Sur 0 1003.6 0.6 82
2018-05-21 08:00:00 11.9 11 Sudeste 16 Sudeste 0 1003.5 0.2 85
2018-05-21 07:00:00 10.9 12 Sudeste 15 Sudeste 0 1003.3 -0.5 84
2018-05-21 06:00:00 12.1 10 Este 17 Sudeste 0 1003 -1.3 81
2018-05-21 05:00:00 13.3 10 Este 18 Este 0 1003.3 -1.6 80
2018-05-21 04:00:00 13.5 10 Este 16 Este 0 1003.8 -1.6 80
2018-05-21 03:00:00 13.7 13 Este 21 Este 0 1004.3 -1.6 82
2018-05-21 02:00:00 13.9 10 Este 19 Este 0 1004.9 -1.2 84
2018-05-21 01:00:00 13.8 10 Este 22 Este 0 1005.4 -0.4 87
2018-05-21 00:00:00 14.2 13 Este 34 Nordeste 0 1005.9 0.2 90
2018-05-20 23:00:00 14.6 15 Nordeste 36 Nordeste 0 1006.1 0.4 90
2018-05-20 22:00:00 14.9 23 Nordeste 39 Nordeste 0 1005.8 -0.1 89
2018-05-20 21:00:00 15.5 22 Nordeste 39 Nordeste 0 1005.7 -0.5 87
2018-05-20 20:00:00 16.2 22 Nordeste 39 Nordeste 0 1005.7 -1 83
2018-05-20 19:00:00 16.4 22 Nordeste 37 Nordeste 0 1005.9 -1.3 83
2018-05-20 18:00:00 16.9 15 Norte 44 Nordeste 0 1006.2 -1.4 80
2018-05-20 17:00:00 17.1 15 Norte 42 Nordeste 0 1006.7 -1.5 80
2018-05-20 16:00:00 17 15 Norte 44 Nordeste 0 1007.2 -1.7 79
2018-05-20 15:00:00 16.4 21 Nordeste 44 Nordeste 0 1007.6 -1.5 79
2018-05-20 14:00:00 16.3 26 Nordeste 42 Nordeste 0 1008.2 -1.1 79
2018-05-20 13:00:00 16.4 23 Nordeste 40 Nordeste 0 1008.9 -1 79
2018-05-20 12:00:00 16.5 13 Norte 38 Nordeste 0 1009.1 -1 77
2018-05-20 11:00:00 15.8 19 Nordeste 34 Nordeste 0 1009.3 -0.7 76
2018-05-20 10:00:00 15.4 13 Nordeste 21 Nordeste 0 1009.9 0.1 73
2018-05-20 09:00:00 13.6 9 Sudeste 16 Sudeste 0 1010.1 0.4 81
2018-05-20 08:00:00 10.9 13 Sudeste 20 Sudeste 0 1010 0 86
2018-05-20 07:00:00 10.9 13 Sudeste 21 Sudeste 0 1009.8 -0.6 84
2018-05-20 06:00:00 10.2 14 Este 20 Sudeste 0 1009.7 -1.3 85
2018-05-20 05:00:00 11.5 10 Este 16 Este 0 1010 -1.4 85
2018-05-20 04:00:00 11.3 12 Este 19 Este 0 1010.4 -1.2 84
2018-05-20 03:00:00 11.9 9 Este 15 Este 0 1011 -0.9 86
2018-05-20 02:00:00 12.2 9 Este 18 Nordeste 0 1011.4 -0.3 88
2018-05-20 01:00:00 13.3 10 Este 23 Este 0 1011.6 0.4 89
2018-05-20 00:00:00 14.1 14 Nordeste 24 Este 0 1011.9 0.7 90
2018-05-19 23:00:00 14.4 14 Nordeste 30 Nordeste 0 1011.7 0.5 89
2018-05-19 22:00:00 14.8 17 Nordeste 29 Nordeste 0 1011.2 0 89
2018-05-19 21:00:00 15.7 18 Nordeste 31 Nordeste 0 1011.2 -0.1 86
2018-05-19 20:00:00 16.1 20 Nordeste 35 Nordeste 0 1011.2 -0.1 85
2018-05-19 19:00:00 16.4 23 Nordeste 36 Nordeste 0 1011.2 -0.5 84
2018-05-19 18:00:00 16.5 22 Nordeste 41 Nordeste 0 1011.3 -0.7 83
2018-05-19 17:00:00 16.5 27 Nordeste 40 Nordeste 0 1011.3 -0.9 82
2018-05-19 16:00:00 17.2 14 Norte 38 Nordeste 0 1011.7 -0.6 80
2018-05-19 15:00:00 16.7 22 Nordeste 36 Nordeste 0 1012 -0.3 81
2018-05-19 14:00:00 17.1 15 Nordeste 33 Nordeste 0 1012.2 -0.2 78
2018-05-19 13:00:00 17.1 14 Este 28 Nordeste 0 1012.3 -0.3 78
2018-05-19 12:00:00 16.4 20 Nordeste 31 Nordeste 0 1012.3 0.1 79
2018-05-19 11:00:00 16.3 16 Nordeste 31 Nordeste 0 1012.4 0.6 80
2018-05-19 10:00:00 16.2 10 Nordeste 22 Nordeste 0 1012.6 1.2 78
2018-05-19 09:00:00 15.1 9 Nordeste 19 Este 0 1012.2 0.9 82
2018-05-19 08:00:00 13.3 11 Este 18 Nordeste 0 1011.8 0.8 88
2018-05-19 07:00:00 13.7 13 Este 27 Nordeste 0 1011.4 0.1 88
2018-05-19 06:00:00 14.2 15 Nordeste 23 Nordeste 0 1011.3 -0.4 87
2018-05-19 05:00:00 13.9 10 Este 17 Este 0 1011 -1 87
2018-05-19 04:00:00 13.9 10 Este 18 Este 0 1011.3 -0.7 87
2018-05-19 03:00:00 14.1 12 Este 26 Este 0 1011.7 -0.5 88
2018-05-19 02:00:00 14.4 14 Nordeste 32 Nordeste 0 1012 0.1 89
2018-05-19 01:00:00 14.5 18 Nordeste 39 Nordeste 0 1012 0.5 88
2018-05-19 00:00:00 14.7 22 Nordeste 38 Nordeste 0 1012.2 1.2 87
2018-05-18 23:00:00 14.7 20 Nordeste 42 Norte 0 1011.9 0.8 88
2018-05-18 22:00:00 14.8 25 Nordeste 40 Nordeste 0 1011.5 0.4 87
2018-05-18 21:00:00 15.2 24 Nordeste 38 Norte 0 1011 0.1 85
2018-05-18 20:00:00 15.8 21 Nordeste 39 Nordeste 0 1011.1 0.3 85
2018-05-18 19:00:00 16.3 20 Nordeste 42 Norte 0 1011.1 0.1 83
2018-05-18 18:00:00 16.3 23 Nordeste 42 Nordeste 0 1010.9 -0.4 83
2018-05-18 17:00:00 16.6 22 Nordeste 43 Nordeste 0 1010.8 -1.1 82
2018-05-18 16:00:00 16.7 21 Nordeste 37 Nordeste 0 1011 -1.2 82
2018-05-18 15:00:00 17.1 15 Norte 36 Nordeste 0 1011.3 -0.9 80
2018-05-18 14:00:00 17 16 Norte 32 Nordeste 0 1011.9 -0.5 79
2018-05-18 13:00:00 16.7 14 Nordeste 25 Nordeste 0 1012.2 -0.3 79
2018-05-18 12:00:00 16.7 10 Norte 23 Nordeste 0 1012.2 -0.1 78
2018-05-18 11:00:00 15.9 5 Nordeste 10 Nordeste 0 1012.4 0.4 82
2018-05-18 10:00:00 14.1 5 Nordeste 9 Nordeste 0 1012.5 0.8 85
2018-05-18 09:00:00 13.4 4 Este 13 Sudeste 0 1012.3 0.8 87
2018-05-18 08:00:00 12.4 8 Sudeste 15 Sudeste 0 1012 0.5 88
2018-05-18 07:00:00 12.4 8 Sudeste 16 Sudeste 0 1011.7 0.2 88
2018-05-18 06:00:00 12.1 9 Sudeste 18 Sudeste 0 1011.5 0.1 89
2018-05-18 05:00:00 12.4 7 Este 11 Nordeste 0 1011.5 0 89
2018-05-18 04:00:00 11.8 5 Este 10 Sudeste 0 1011.5 0 89
2018-05-18 03:00:00 11.3 4 Sudeste 11 Nordeste 0 1011.4 0 86
2018-05-18 02:00:00 13 8 Este 21 Nordeste 0 1011.5 0.2 86
2018-05-18 01:00:00 13.3 8 Nordeste 19 Nordeste 0 1011.5 0.5 86
2018-05-18 00:00:00 13.5 12 Este 22 Nordeste 0 1011.4 0.5 86
2018-05-17 23:00:00 13.7 15 Nordeste 27 Nordeste 0 1011.3 0.3 85
2018-05-17 22:00:00 13.8 14 Nordeste 28 Nordeste 0 1011 0 84
2018-05-17 21:00:00 14.3 13 Nordeste 30 Nordeste 0 1010.9 -0.1 82
2018-05-17 20:00:00 15.6 8 Norte 26 Nordeste 0 1011 -0.3 77
2018-05-17 19:00:00 15.4 12 Nordeste 24 Nordeste 0 1011 -0.3 78
2018-05-17 18:00:00 15.7 14 Nordeste 26 Nordeste 0 1011 -0.6 77
2018-05-17 17:00:00 16.4 12 Nordeste 24 Nordeste 0 1011.3 -0.4 74
2018-05-17 16:00:00 16.9 9 Norte 27 Norte 0 1011.3 -0.2 73
2018-05-17 15:00:00 16.3 11 Norte 28 Nordeste 0 1011.6 0.1 74
2018-05-17 14:00:00 16.5 8 Norte 30 Nordeste 0 1011.7 0.4 75
2018-05-17 13:00:00 16.3 10 Norte 32 Norte 0 1011.5 0.2 75
2018-05-17 12:00:00 16.1 9 Noroeste 28 Nordeste 0 1011.5 0.1 74
2018-05-17 11:00:00 15.6 11 Nordeste 22 Nordeste 0 1011.3 0 74
2018-05-17 10:00:00 14.5 11 Este 19 Nordeste 0 1011.3 0.2 76
2018-05-17 09:00:00 13.1 6 Este 13 Nordeste 0 1011.4 0.1 85
2018-05-17 08:00:00 10.9 9 Este 17 Este 0 1011.3 -0.1 88
2018-05-17 07:00:00 9.7 11 Sudeste 14 Este 0 1011.1 -0.6 88
2018-05-17 06:00:00 10.4 10 Este 18 Este 0 1011.3 -0.5 86
2018-05-17 05:00:00 12.1 11 Este 18 Este 0 1011.4 -0.9 85
2018-05-17 04:00:00 12.2 12 Este 21 Nordeste 0 1011.7 -1 85
2018-05-17 03:00:00 11.8 10 Este 23 Este 0 1011.8 -1.1 84
2018-05-17 02:00:00 12.7 15 Este 28 Nordeste 0 1012.3 -0.5 84
2018-05-17 01:00:00 13 15 Nordeste 31 Nordeste 0 1012.7 0.4 84
2018-05-17 00:00:00 13.2 18 Nordeste 33 Nordeste 0 1012.9 0.7 82
2018-05-16 23:00:00 13.5 18 Nordeste 37 Norte 0 1012.8 0.8 82
2018-05-16 22:00:00 13.6 15 Norte 35 Nordeste 0 1012.3 -0.1 80
2018-05-16 21:00:00 13.7 16 Nordeste 37 Nordeste 0 1012.2 -0.3 80
2018-05-16 20:00:00 14 22 Nordeste 37 Nordeste 0 1012 -0.7 78
2018-05-16 19:00:00 14.8 14 Norte 36 Nordeste 0 1012.4 -0.5 75
2018-05-16 18:00:00 16 15 Nordeste 31 Norte 0 1012.5 -1.1 72
2018-05-16 17:00:00 16.4 11 Norte 35 Nordeste 0 1012.7 -1.6 72
2018-05-16 16:00:00 16.6 12 Norte 31 Nordeste 0 1012.9 -1.9 75
2018-05-16 15:00:00 14.8 13 Nordeste 27 Nordeste 0 1013.6 -1.4 77
2018-05-16 14:00:00 14.2 16 Nordeste 26 Nordeste 0 1014.3 -0.7 81
2018-05-16 13:00:00 14.3 10 Nordeste 19 Nordeste 0 1014.8 0 81
2018-05-16 12:00:00 13.5 8 Norte 18 Sudoeste 0 1015 0.4 85
2018-05-16 11:00:00 13.5 6 Norte 17 Nordeste 0 1015 0.6 87
2018-05-16 10:00:00 13.3 6 Oeste 15 Sudoeste 0 1014.8 0.4 86
2018-05-16 09:00:00 13.4 6 Oeste 18 Nordeste 0 1014.6 0.1 86
2018-05-16 08:00:00 13 10 Nordeste 19 Nordeste 0 1014.4 -0.4 85
2018-05-16 07:00:00 12.1 5 Este 9 Nordeste 0 1014.4 -1.1 85
2018-05-16 06:00:00 12.3 4 Sudeste 12 Sudeste 0 1014.5 -1.4 84
2018-05-16 05:00:00 12.2 9 Sudeste 17 Este 0 1014.8 -1.4 84
2018-05-16 04:00:00 12.6 11 Este 26 Nordeste 0 1015.5 -1.3 85
2018-05-16 03:00:00 12.6 8 Norte 26 Nordeste 0 1015.9 -0.9 87
2018-05-16 02:00:00 13 7 Oeste 20 Nordeste 0 1016.2 -0.5 87
2018-05-16 01:00:00 13 10 Este 27 Nordeste 0.2 1016.8 0.5 87
2018-05-16 00:00:00 13.1 9 Nordeste 25 Nordeste 0.2 1016.8 0.6 86
2018-05-15 23:00:00 12.9 6 Sudeste 20 Nordeste 0 1016.7 0.7 85
2018-05-15 22:00:00 13.3 11 Nordeste 50 Nordeste 0 1016.3 0 85
2018-05-15 21:00:00 13.7 5 Sudoeste 16 Oeste 0 1016.2 -0.2 85
2018-05-15 20:00:00 14.3 4 Noroeste 50 Nordeste 0 1016 -0.6 80
2018-05-15 19:00:00 15.1 9 Noroeste 17 Noroeste 0 1016.3 -0.6 77
2018-05-15 18:00:00 15.3 9 Noroeste 18 Oeste 0 1016.4 -0.8 72
2018-05-15 17:00:00 15.5 6 Noroeste 18 Oeste 0 1016.6 -0.9 68
2018-05-15 16:00:00 15.8 9 Noroeste 19 Oeste 0 1016.9 -0.8 65
2018-05-15 15:00:00 16.4 6 Noroeste 14 Norte 0 1017.2 -0.2 64
2018-05-15 14:00:00 16.4 5 Norte 15 Nordeste 0 1017.5 0.1 63
2018-05-15 13:00:00 15.7 6 Oeste 17 Oeste 0 1017.7 0 63
2018-05-15 12:00:00 15.9 5 Oeste 16 Nordeste 0 1017.4 -0.4 64
2018-05-15 11:00:00 14.7 10 Sudeste 19 Sudeste 0 1017.4 -0.1 67
2018-05-15 10:00:00 11.9 13 Sudeste 22 Sudeste 0 1017.7 0.4 77
2018-05-15 09:00:00 9.1 17 Sudeste 27 Sudeste 0 1017.8 0.5 83
2018-05-15 08:00:00 7 21 Sudeste 28 Sudeste 0 1017.5 0 86
2018-05-15 07:00:00 6.9 20 Sudeste 27 Sudeste 0 1017.3 -0.3 86
2018-05-15 06:00:00 7.3 19 Sudeste 25 Sudeste 0 1017.3 -0.5 86
2018-05-15 05:00:00 7.7 18 Sudeste 26 Sudeste 0 1017.5 -0.7 86
2018-05-15 04:00:00 8.2 18 Sudeste 23 Sudeste 0 1017.6 -0.8 87
2018-05-15 03:00:00 8.4 18 Sudeste 22 Sudeste 0 1017.8 -0.8 88
2018-05-15 02:00:00 8.6 15 Sudeste 18 Sudeste 0 1018.2 -0.4 87
2018-05-15 01:00:00 9.5 14 Sudeste 17 Sudeste 0 1018.4 0.4 86
2018-05-15 00:00:00 10 12 Sudeste 15 Sudeste 0 1018.6 1 85
2018-05-14 23:00:00 10.5 8 Sudeste 10 Sudeste 0 1018.6 1.1 80
2018-05-14 22:00:00 12.4 3 Nordeste 14 Este 0 1018 0.6 76
2018-05-14 21:00:00 13.9 5 Nordeste 13 Nordeste 0 1017.6 0.1 71
2018-05-14 20:00:00 14.9 4 Este 14 Este 0 1017.5 0 70
2018-05-14 19:00:00 14.9 6 Nordeste 19 Nordeste 0 1017.4 -0.2 72
2018-05-14 18:00:00 14.6 9 Nordeste 19 Nordeste 0 1017.5 0.1 71
2018-05-14 17:00:00 15.3 10 Nordeste 23 Nordeste 0 1017.5 0.4 71
2018-05-14 16:00:00 16.3 6 Nordeste 23 Nordeste 0 1017.6 0.6 70
2018-05-14 15:00:00 15.7 9 Nordeste 23 Nordeste 0 1017.4 0.8 75
2018-05-14 14:00:00 15.3 11 Nordeste 22 Nordeste 0 1017.1 1.1 77
2018-05-14 13:00:00 15 9 Nordeste 23 Este 0 1017 1.6 79
2018-05-14 12:00:00 13.4 11 Nordeste 29 Nordeste 0 1016.6 1.7 86
2018-05-14 11:00:00 12.8 9 Norte 29 Nordeste 0 1016 1.6 90
2018-05-14 10:00:00 12.7 7 Oeste 20 Este 0 1015.4 2.3 92
2018-05-14 09:00:00 12.4 4 Oeste 15 Norte 0.2 1014.9 1.8 93
2018-05-14 08:00:00 12.3 6 Oeste 46 Noroeste 1.6 1014.4 1.4 93
2018-05-14 07:00:00 13 39 Oeste 53 Noroeste 1.2 1013.1 0.6 92
2018-05-14 06:00:00 13.1 36 Oeste 56 Oeste 1.8 1013.1 0.6 91
2018-05-14 05:00:00 12.5 34 Oeste 57 Oeste 1.6 1013 -0.5 90
2018-05-14 04:00:00 12.6 42 Oeste 63 Oeste 0.4 1012.5 -1.6 87
2018-05-14 03:00:00 13.1 44 Oeste 61 Oeste 0 1012.5 -2.3 81
2018-05-14 02:00:00 12.6 28 Oeste 41 Oeste 0 1013.5 -1.9 80
2018-05-14 01:00:00 12 22 Oeste 33 Oeste 0.2 1014.1 -1.2 80
2018-05-11 20:00:00 12.6 16 Oeste 29 Noroeste 0 1009.5 1.3 88
2018-05-11 19:00:00 13.1 15 Oeste 43 Noroeste 0 1009.3 1.8 86
2018-05-11 18:00:00 14.7 21 Noroeste 30 Noroeste 0 1008.6 0.6 81
2018-05-11 17:00:00 16.9 8 Sudoeste 41 Noroeste 0 1008.2 0.1 65
2018-05-11 16:00:00 17.4 22 Oeste 42 Noroeste 0 1007.5 0.1 64
2018-05-11 15:00:00 15.5 23 Oeste 37 Oeste 0 1008 0 67
2018-05-11 14:00:00 15.1 13 Sudoeste 31 Sudoeste 0 1008.1 0.8 71
2018-05-11 13:00:00 15.2 4 Sur 10 Sudoeste 0 1007.4 0.4 73
2018-05-11 12:00:00 15.5 3 Norte 12 Nordeste 0 1008 1 77
2018-05-11 11:00:00 15 8 Este 14 Este 0 1007.3 0.8 78
2018-05-11 10:00:00 14.6 3 Norte 8 Nordeste 0 1007 1.2 79
2018-05-11 09:00:00 13.7 5 Sudeste 27 Oeste 0 1007 2.1 79
2018-05-11 08:00:00 13.1 23 Oeste 33 Oeste 0 1006.5 1.6 81
2018-05-11 07:00:00 11.3 12 Oeste 21 Sur 0 1005.8 0.9 80
2018-05-11 06:00:00 10.1 14 Sur 21 Oeste 0 1004.9 -1.1 82
2018-05-11 05:00:00 10.4 11 Sudoeste 19 Sudeste 0 1004.9 -2.1 82
2018-05-11 04:00:00 10.3 12 Sudeste 19 Sudeste 0 1004.9 -2.9 81
2018-05-11 03:00:00 10 9 Sur 13 Sur 0 1006 -2.7 80
2018-05-11 02:00:00 10.7 8 Sur 14 Sur 0 1007 -2.1 78
2018-05-11 01:00:00 12.3 8 Este 20 Sudeste 0 1007.8 -1.5 75
2018-05-11 00:00:00 12.2 12 Este 31 Este 0 1008.7 -1 75
2018-05-10 23:00:00 12.6 21 Este 44 Este 0 1009.1 -0.9 74
2018-05-10 22:00:00 12.9 22 Este 45 Nordeste 0 1009.3 -1.4 71
2018-05-10 21:00:00 13.5 27 Nordeste 50 Nordeste 0 1009.7 -2 69
2018-05-10 20:00:00 13.8 31 Nordeste 63 Nordeste 0 1010 -1.7 65
2018-05-10 19:00:00 13.8 33 Nordeste 55 Nordeste 0 1010.7 -2 66
2018-05-10 18:00:00 14.2 28 Nordeste 55 Nordeste 0 1011.7 -1.7 62
2018-05-10 17:00:00 14.3 27 Nordeste 55 Nordeste 0 1011.7 -2.5 65
2018-05-10 16:00:00 14.7 20 Nordeste 49 Nordeste 0 1012.7 -2 63
2018-05-10 15:00:00 14.5 22 Nordeste 42 Este 0 1013.4 -1.7 62
2018-05-10 14:00:00 14.6 15 Nordeste 36 Este 0 1014.2 -0.8 63
2018-05-10 13:00:00 14.7 15 Nordeste 31 Nordeste 0 1014.7 0.2 62
2018-05-10 12:00:00 14.5 13 Nordeste 31 Este 0 1015.1 1.1 62
2018-05-10 11:00:00 14 9 Nordeste 27 Nordeste 0 1015 1.7 63
2018-05-10 10:00:00 12.8 8 Noroeste 22 Oeste 0 1014.5 1.6 69
2018-05-10 09:00:00 12.5 8 Noroeste 17 Noroeste 0 1014 1.2 71
2018-05-10 08:00:00 12.1 6 Noroeste 19 Nordeste 0 1013.3 0.7 73
2018-05-10 07:00:00 12 6 Oeste 22 Este 0 1012.9 0.7 73
2018-05-10 06:00:00 12 7 Oeste 29 Noroeste 0 1012.8 0.9 74
2018-05-10 05:00:00 12.3 19 Norte 37 Norte 0 1012.6 0.8 75
2018-05-10 04:00:00 12.1 26 Norte 35 Norte 1.2 1012.2 0.7 83
2018-05-10 03:00:00 11.4 15 Oeste 33 Noroeste 1.4 1011.9 0.6 88
2018-05-10 02:00:00 12.4 13 Noroeste 32 Oeste 0 1011.8 0.7 80
2018-05-10 01:00:00 12.7 14 Oeste 27 Noroeste 0 1011.5 1 76
2018-05-10 00:00:00 12.7 11 Oeste 18 Sudoeste 0 1011.3 1.4 74
2018-05-09 23:00:00 11.9 8 Sudoeste 22 Oeste 0 1011.1 1.7 79
2018-05-09 22:00:00 12.8 19 Oeste 27 Noroeste 0 1010.5 1.4 79
2018-05-09 21:00:00 13.2 13 Noroeste 30 Noroeste 0 1009.9 1.2 77
2018-05-09 20:00:00 12.9 14 Noroeste 28 Oeste 0 1009.4 0.8 77
2018-05-09 19:00:00 13.3 10 Oeste 30 Noroeste 0 1009.1 0.7 80
2018-05-09 18:00:00 13.4 12 Noroeste 23 Noroeste 0 1008.7 0.2 81
2018-05-09 17:00:00 13.3 15 Noroeste 24 Noroeste 0 1008.6 0.2 82
2018-05-09 16:00:00 13.5 10 Noroeste 19 Noroeste 0 1008.4 -0.1 85
2018-05-09 15:00:00 14.9 9 Noroeste 14 Oeste 0 1008.5 -0.1 87
2018-05-09 14:00:00 13.8 6 Noroeste 18 Noroeste 0 1008.4 0.2 90
2018-05-09 13:00:00 13.1 6 Noroeste 19 Norte 0.2 1008.5 0.5 90
2018-05-09 12:00:00 12.8 5 Oeste 14 Sur 0 1008.6 0.7 90
2018-05-09 11:00:00 12.9 6 Norte 20 Este 0 1008.2 0.4 91
2018-05-09 10:00:00 12.9 6 Noroeste 23 Nordeste 0.2 1008 0.5 91
2018-05-09 09:00:00 13 8 Noroeste 22 Este 0.4 1007.9 0.4 90
2018-05-09 08:00:00 13.2 5 Oeste 14 Norte 0.2 1007.8 -0.3 89
2018-05-09 07:00:00 13.5 5 Noroeste 10 Noroeste 0 1007.5 -0.8 88
2018-05-09 06:00:00 13.3 4 Noroeste 12 Oeste 0 1007.5 -1.5 87
2018-05-09 05:00:00 13.4 7 Noroeste 11 Noroeste 0 1008.1 -1.3 87
2018-05-09 04:00:00 13.5 3 Noroeste 9 Noroeste 0 1008.3 -1.5 87
2018-05-09 03:00:00 13.5 5 Noroeste 8 Noroeste 0 1009 -1 86
2018-05-09 02:00:00 13.3 2 Sudeste 6 Sur 0 1009.4 -0.9 85
2018-05-09 01:00:00 13.3 3 Sudoeste 6 Sur 0 1009.8 -0.3 85
2018-05-09 00:00:00 13.3 0 Calma 5 Noroeste 0 1010 -0.2 84
2018-05-08 23:00:00 13.4 3 Noroeste 5 Noroeste 0 1010.3 0.2 84
2018-05-08 22:00:00 13.4 3 Noroeste 8 Noroeste 0 1010.1 -0.4 84
2018-05-08 21:00:00 13.6 5 Noroeste 15 Noroeste 0 1010.2 0.1 83
2018-05-08 20:00:00 13.9 12 Noroeste 15 Noroeste 0 1010.1 -0.2 80
2018-05-08 19:00:00 14.5 11 Noroeste 18 Norte 0 1010.5 0 76
2018-05-08 18:00:00 15.9 8 Noroeste 26 Noroeste 0 1010.1 -1.2 75
2018-05-08 17:00:00 14.4 23 Noroeste 27 Noroeste 0 1010.3 -1.3 77
2018-05-08 16:00:00 15.1 11 Noroeste 22 Oeste 0 1010.5 -0.6 77
2018-05-08 15:00:00 13.5 19 Noroeste 27 Noroeste 0 1011.3 0.9 85
2018-05-08 14:00:00 12.3 19 Noroeste 41 Noroeste 0 1011.6 1.4 89
2018-05-08 13:00:00 12.9 25 Noroeste 35 Noroeste 0 1011.1 0.9 87
2018-05-08 12:00:00 13.2 16 Noroeste 25 Noroeste 0 1010.4 0.5 89
2018-05-08 11:00:00 13.4 6 Noroeste 16 Noroeste 0 1010.2 0.9 91
2018-05-08 10:00:00 13 7 Noroeste 26 Noroeste 0 1010.2 1.1 91
2018-05-08 09:00:00 12.9 20 Noroeste 35 Noroeste 0 1009.9 0.8 91
2018-05-08 08:00:00 13.3 21 Noroeste 27 Noroeste 0 1009.3 0.1 91
2018-05-08 07:00:00 13.6 9 Noroeste 17 Noroeste 0 1009.1 -0.3 90
2018-05-08 06:00:00 13.8 8 Noroeste 17 Oeste 0 1009.1 -0.6 90
2018-05-08 05:00:00 13.9 8 Noroeste 16 Noroeste 0 1009.2 -0.8 89
2018-05-08 04:00:00 13.8 7 Noroeste 15 Noroeste 0 1009.4 -0.8 89
2018-05-08 03:00:00 13.9 14 Oeste 23 Oeste 0 1009.7 -0.5 89
2018-05-08 02:00:00 14 15 Noroeste 22 Oeste 0 1010 0.3 89
2018-05-08 01:00:00 14 15 Noroeste 22 Oeste 0 1010.2 1 88
2018-05-08 00:00:00 14 13 Noroeste 19 Noroeste 0 1010.2 1.4 88
2018-05-07 23:00:00 14 8 Noroeste 14 Noroeste 0 1009.7 0.9 87
2018-05-07 22:00:00 14.1 6 Oeste 14 Oeste 0 1009.2 0.1 87
2018-05-07 21:00:00 14.2 5 Oeste 16 Oeste 0 1008.8 0 86
2018-05-07 20:00:00 14.6 7 Oeste 15 Oeste 0 1008.8 -0.1 84
2018-05-07 19:00:00 15.2 6 Noroeste 16 Oeste 0 1009.1 -0.4 83
2018-05-07 18:00:00 15.9 10 Oeste 14 Oeste 0 1008.8 -0.9 81
2018-05-07 17:00:00 15.9 5 Norte 12 Noroeste 0 1008.9 -1.2 80
2018-05-07 16:00:00 15.9 5 Norte 15 Noroeste 0 1009.5 -0.9 80
2018-05-07 15:00:00 15.9 10 Noroeste 16 Oeste 0 1009.7 -0.6 79
2018-05-07 14:00:00 15.5 11 Oeste 15 Oeste 0 1010.1 -0.1 82
2018-05-07 13:00:00 15.5 8 Noroeste 14 Oeste 0 1010.4 0.2 86
2018-05-07 12:00:00 14.7 5 Oeste 10 Oeste 0 1010.3 0.3 88
2018-05-07 11:00:00 14.1 9 Oeste 12 Oeste 0 1010.2 0.5 90
2018-05-07 10:00:00 13.7 5 Oeste 10 Oeste 0 1010.2 0.7 90
2018-05-07 09:00:00 13 4 Sur 7 Sudeste 0 1010 0.8 90
2018-05-07 08:00:00 13.1 5 Oeste 9 Sudoeste 0 1009.7 0.4 90
2018-05-07 07:00:00 12.8 4 Sur 6 Sudeste 0 1009.5 0 90
2018-05-07 06:00:00 12.9 4 Sudeste 8 Sudoeste 0 1009.2 -0.5 90
2018-05-07 05:00:00 13.2 5 Sudoeste 10 Sudoeste 0 1009.3 -0.5 90
2018-05-07 04:00:00 13.2 9 Oeste 14 Oeste 0 1009.5 -0.7 89
2018-05-07 03:00:00 13.5 7 Oeste 10 Oeste 0 1009.7 -0.4 88
2018-05-07 02:00:00 13.2 4 Sudoeste 8 Sur 0 1009.8 -0.1 88
2018-05-07 01:00:00 13.8 2 Sudeste 4 Sur 0 1010.2 0.6 87
2018-05-07 00:00:00 14.2 0 Calma 8 Nordeste 0 1010.1 0.9 87
2018-05-06 23:00:00 14.8 5 Nordeste 13 Este 0 1009.9 1 87
2018-05-06 22:00:00 14.9 4 Nordeste 11 Este 0 1009.6 0.9 86
2018-05-06 21:00:00 15.5 3 Nordeste 12 Este 0 1009.2 0.4 83
2018-05-06 20:00:00 16 6 Nordeste 22 Nordeste 0 1008.9 -0.1 81
2018-05-06 19:00:00 16.4 9 Nordeste 21 Nordeste 0 1008.7 -0.9 76
2018-05-06 18:00:00 16.8 9 Nordeste 22 Nordeste 0 1008.8 -0.8 74
2018-05-06 17:00:00 16.6 11 Nordeste 21 Nordeste 0 1009 -0.8 77
2018-05-06 16:00:00 16.9 9 Nordeste 17 Nordeste 0 1009.6 -0.8 76
2018-05-06 15:00:00 16.9 5 Nordeste 18 Nordeste 0 1009.6 -0.8 79
2018-05-06 14:00:00 16.3 10 Nordeste 18 Nordeste 0 1009.8 -0.8 79
2018-05-06 13:00:00 16.3 7 Nordeste 17 Nordeste 0 1010.4 -0.4 78
2018-05-06 12:00:00 15.8 9 Nordeste 14 Nordeste 0 1010.4 -0.6 76
2018-05-06 11:00:00 15.3 4 Norte 9 Nordeste 0 1010.6 -0.2 74
2018-05-06 10:00:00 14.3 3 Noroeste 10 Sur 0 1010.8 0.6 77
2018-05-06 09:00:00 11.9 9 Sur 14 Sur 0 1011 0.7 84
2018-05-06 08:00:00 9.4 13 Sur 16 Sur 0 1010.8 0.5 86
2018-05-06 07:00:00 9.3 10 Sudeste 15 Sudeste 0 1010.2 -0.2 85
2018-05-06 06:00:00 10.2 13 Sudeste 18 Sudeste 0 1010.3 -0.7 81
2018-05-06 05:00:00 12.4 10 Este 19 Nordeste 0 1010.3 -1.2 80
2018-05-06 04:00:00 12.1 11 Este 17 Este 0 1010.4 -1.5 76
2018-05-06 03:00:00 12.2 11 Este 22 Este 0 1011 -1.1 77
2018-05-06 02:00:00 12.3 11 Sudeste 24 Este 0 1011.5 -0.9 83
2018-05-06 01:00:00 13.1 16 Nordeste 39 Nordeste 0 1011.9 -0.2 85
2018-05-06 00:00:00 13.2 26 Nordeste 42 Nordeste 0 1012.1 0.4 85
2018-05-05 23:00:00 13.3 20 Nordeste 39 Nordeste 0 1012.4 0.9 86
2018-05-05 22:00:00 13.4 22 Nordeste 40 Nordeste 0 1012.1 0.4 86
2018-05-05 21:00:00 13.7 26 Nordeste 48 Nordeste 0 1011.7 0.1 84
2018-05-05 20:00:00 14.3 23 Nordeste 44 Nordeste 0 1011.5 -0.2 81
2018-05-05 19:00:00 14.7 23 Nordeste 46 Nordeste 0 1011.7 -0.2 79
2018-05-05 18:00:00 15 20 Nordeste 43 Nordeste 0 1011.6 -0.5 76
2018-05-05 17:00:00 15.9 13 Norte 40 Nordeste 0 1011.7 -1 71
2018-05-05 16:00:00 16 13 Norte 36 Nordeste 0 1011.9 -1.2 70
2018-05-05 15:00:00 15.9 9 Noroeste 41 Nordeste 0 1012.1 -1.1 71
2018-05-05 14:00:00 15.1 17 Nordeste 45 Nordeste 0 1012.7 -0.7 72
2018-05-05 13:00:00 14.9 15 Nordeste 41 Nordeste 0 1013.1 -0.5 75
2018-05-05 12:00:00 14.3 17 Nordeste 44 Nordeste 0 1013.2 -0.6 73
2018-05-05 11:00:00 14.1 16 Nordeste 39 Nordeste 0 1013.4 -0.1 71
2018-05-05 10:00:00 13.5 9 Nordeste 18 Nordeste 0 1013.6 0.5 74
2018-05-05 09:00:00 11.2 6 Sudeste 18 Sudeste 0 1013.8 0.6 79
2018-05-05 08:00:00 8.2 13 Sudeste 19 Sudeste 0 1013.5 0.4 84
2018-05-05 07:00:00 7.9 13 Sudeste 21 Sudeste 0 1013.1 -0.1 84
2018-05-05 06:00:00 8.3 12 Sudeste 18 Sudeste 0 1013.2 -0.6 83
2018-05-05 05:00:00 8.8 10 Sudeste 17 Sudeste 0 1013.1 -1 82
2018-05-05 04:00:00 8.7 12 Sudeste 17 Sudeste 0 1013.2 -1.1 82
2018-05-05 03:00:00 9.4 11 Sudeste 15 Sudeste 0 1013.8 -0.9 80
2018-05-05 02:00:00 9.5 8 Este 14 Este 0 1014.1 -0.5 79
2018-05-05 01:00:00 11.3 10 Este 24 Este 0 1014.3 0.2 77
2018-05-05 00:00:00 11.8 12 Este 28 Este 0 1014.7 0.9 77
2018-05-04 23:00:00 12.1 15 Este 37 Este 0 1014.6 1.1 76
2018-05-04 22:00:00 12.6 21 Nordeste 43 Nordeste 0 1014.1 0.2 79
2018-05-04 21:00:00 13 23 Nordeste 42 Nordeste 0 1013.8 0 76
2018-05-04 20:00:00 13.4 21 Nordeste 45 Nordeste 0 1013.5 -0.3 74
2018-05-04 19:00:00 13.8 25 Nordeste 52 Nordeste 0 1013.9 -0.4 70
2018-05-04 18:00:00 13.9 26 Nordeste 49 Nordeste 0 1013.8 -0.8 67
2018-05-04 17:00:00 14.1 25 Nordeste 47 Nordeste 0 1013.8 -0.8 67
2018-05-04 16:00:00 14.4 18 Nordeste 42 Nordeste 0 1014.3 -0.8 65
2018-05-04 15:00:00 14.8 11 Norte 38 Nordeste 0 1014.6 -0.5 64
2018-05-04 14:00:00 14.5 12 Norte 36 Nordeste 0 1014.6 -0.8 66
2018-05-04 13:00:00 14.8 6 Noroeste 28 Nordeste 0 1015.1 -0.4 68
2018-05-04 12:00:00 14.2 9 Norte 28 Nordeste 0 1015.1 -0.1 67
2018-05-04 11:00:00 14 9 Nordeste 26 Nordeste 0 1015.4 0.5 69
2018-05-04 10:00:00 13.1 4 Nordeste 12 Este 0 1015.5 0.9 74
2018-05-04 09:00:00 9.1 7 Sudeste 17 Sudeste 0 1015.2 0.5 81
2018-05-04 08:00:00 7.8 13 Sudeste 21 Sudeste 0 1014.9 -0.1 83
2018-05-04 07:00:00 7.4 15 Sudeste 22 Sudeste 0 1014.6 -0.7 84
2018-05-04 06:00:00 7.7 14 Sudeste 19 Sudeste 0 1014.7 -1.1 84
2018-05-04 05:00:00 8.1 12 Sudeste 18 Sudeste 0 1015 -1.1 82
2018-05-04 04:00:00 8.2 10 Sudeste 15 Sudeste 0 1015.3 -1.2 81
2018-05-04 03:00:00 8.8 10 Sudeste 17 Sudeste 0 1015.8 -0.8 79
2018-05-04 02:00:00 9.1 12 Sudeste 15 Sudeste 0 1016.1 -0.7 79
2018-05-04 01:00:00 10.6 8 Sudeste 23 Nordeste 0 1016.5 0.2 74
2018-05-04 00:00:00 11.9 10 Nordeste 26 Norte 0 1016.6 0.8 72
2018-05-03 23:00:00 11.8 7 Noroeste 26 Nordeste 0 1016.8 1.5 71
2018-05-03 22:00:00 11.8 9 Norte 24 Nordeste 0 1016.3 1 71
2018-05-03 21:00:00 12.8 6 Norte 21 Nordeste 0 1015.8 0.2 67
2018-05-03 20:00:00 14 7 Oeste 22 Nordeste 0 1015.3 -0.4 66
2018-05-03 19:00:00 13.9 9 Nordeste 23 Nordeste 0 1015.3 -0.3 64
2018-05-03 18:00:00 14.5 9 Nordeste 23 Nordeste 0 1015.6 0 63
2018-05-03 17:00:00 15 6 Noroeste 19 Sur 0 1015.7 -0.4 61
2018-05-03 16:00:00 15.5 6 Sudoeste 23 Nordeste 0 1015.6 -0.4 65
2018-05-03 15:00:00 15 7 Norte 19 Nordeste 0 1015.6 -0.4 65
2018-05-03 14:00:00 15 8 Norte 22 Nordeste 0 1016.1 0.2 65
2018-05-03 13:00:00 13.3 5 Noroeste 20 Nordeste 0 1016 0.5 70
2018-05-03 12:00:00 13.5 7 Nordeste 18 Nordeste 0 1016 0.8 69
2018-05-03 11:00:00 14 7 Nordeste 15 Nordeste 0 1015.9 1.2 72
2018-05-03 10:00:00 11.9 6 Este 15 Sudeste 0 1015.5 1.4 86
2018-05-03 09:00:00 9.6 10 Sudeste 15 Sudeste 0 1015.2 1.3 89
2018-05-03 08:00:00 8.8 13 Sur 16 Sur 0 1014.7 0.8 89
2018-05-03 07:00:00 8.9 10 Sur 14 Sur 0 1014.1 0.3 88
2018-05-03 06:00:00 9.3 5 Sudeste 10 Norte 0 1013.9 -0.1 85
2018-05-03 05:00:00 10.4 6 Norte 17 Oeste 0 1013.9 -0.2 81
2018-05-03 04:00:00 10.5 7 Sudoeste 14 Oeste 0 1013.8 0 89
2018-05-03 03:00:00 10.6 7 Sudoeste 15 Oeste 0.2 1014 0.6 90
2018-05-03 02:00:00 10.7 8 Sudoeste 13 Oeste 0.6 1014.1 1.6 90
2018-05-03 01:00:00 10.7 4 Oeste 20 Norte 1.2 1013.8 1.9 90
2018-05-03 00:00:00 10.9 17 Norte 32 Noroeste 1.2 1013.4 3 90
2018-05-02 23:00:00 11.4 22 Norte 34 Norte 4.6 1012.5 3.5 91
2018-05-02 22:00:00 11.7 11 Noroeste 26 Noroeste 3 1011.9 3.3 91
2018-05-02 21:00:00 11.9 10 Noroeste 44 Oeste 3.2 1010.4 2.5 91
2018-05-02 20:00:00 13.8 30 Oeste 49 Oeste 0 1009 1.3 84
2018-05-02 19:00:00 15.5 14 Oeste 39 Sudoeste 0 1008.6 1.2 71
2018-05-02 18:00:00 15.6 26 Oeste 45 Sudoeste 0 1007.9 0.7 68
2018-05-02 17:00:00 15.6 23 Oeste 46 Oeste 0.2 1007.7 0.9 70
2018-05-02 16:00:00 15.8 31 Oeste 41 Oeste 0 1007.4 0.7 63
2018-05-02 15:00:00 16 27 Oeste 46 Oeste 0 1007.2 1.2 61
2018-05-02 14:00:00 15 24 Oeste 47 Oeste 0 1006.8 1.2 66
2018-05-02 13:00:00 14.3 24 Sudoeste 46 Oeste 0 1006.7 1.4 65
2018-05-02 12:00:00 14.1 24 Oeste 42 Oeste 0 1006 1.4 65
2018-05-02 11:00:00 13.5 20 Oeste 36 Oeste 0 1005.6 1.4 67
2018-05-02 10:00:00 13.5 12 Oeste 29 Oeste 0.2 1005.3 1.2 64
2018-05-02 09:00:00 13.2 13 Oeste 34 Oeste 0 1004.6 0.2 63
2018-05-02 08:00:00 12.2 10 Oeste 22 Oeste 0 1004.2 -0.8 65
2018-05-02 07:00:00 11 9 Oeste 24 Oeste 0 1004.1 -1.1 69
2018-05-02 06:00:00 9.9 5 Sur 20 Sudeste 0 1004.4 -1.1 73
2018-05-02 05:00:00 9.8 8 Sur 14 Sur 0 1005 -0.7 73
2018-05-02 04:00:00 10.1 9 Sudeste 14 Sur 0 1005.2 -0.9 73
2018-05-02 03:00:00 9.9 7 Sur 13 Sur 0 1005.5 -1.2 73
2018-05-02 02:00:00 9.7 10 Sur 15 Sur 0 1005.7 -1.4 73
2018-05-02 01:00:00 9.9 12 Sur 19 Sur 0 1006.1 -1 72
2018-05-02 00:00:00 10.2 12 Sudeste 17 Sudeste 0 1006.7 -0.4 70
2018-05-01 23:00:00 10.7 9 Sudeste 13 Sudeste 0 1007.1 -0.1 67
2018-05-01 22:00:00 11 7 Sudeste 10 Este 0 1007.1 -0.3 63
2018-05-01 21:00:00 11.7 5 Este 15 Norte 0 1007.1 -0.4 59
2018-05-01 20:00:00 12.9 4 Sur 18 Noroeste 0 1007.2 -0.7 56
2018-05-01 19:00:00 13.7 9 Noroeste 18 Norte 0 1007.4 -1.3 57
2018-05-01 18:00:00 14 8 Nordeste 18 Nordeste 0 1007.5 -1.4 58
2018-05-01 17:00:00 14.1 9 Nordeste 18 Este 0 1007.9 -1.6 58
2018-05-01 16:00:00 14.8 5 Nordeste 18 Norte 0 1008.7 -1.3 59
2018-05-01 15:00:00 14.2 6 Norte 15 Nordeste 0 1008.9 -1.5 59
2018-05-01 14:00:00 13.6 8 Noroeste 20 Noroeste 0 1009.5 -1.2 61
2018-05-01 13:00:00 12.8 14 Noroeste 19 Noroeste 0 1010 -0.7 60
2018-05-01 12:00:00 13.3 7 Noroeste 12 Oeste 0 1010.4 -0.2 63
2018-05-01 11:00:00 13 4 Noroeste 17 Sur 0 1010.7 -0.1 65
2018-05-01 10:00:00 9.9 13 Sur 24 Sudeste 0 1010.7 0.5 73
2018-05-01 09:00:00 7 18 Sur 24 Sur 0 1010.6 0.4 81
2018-05-01 08:00:00 5.2 17 Sudeste 22 Sudeste 0 1010.8 0.3 85
2018-05-01 07:00:00 5 17 Sur 22 Sur 0 1010.2 -0.7 84
2018-05-01 06:00:00 5.5 17 Sudeste 23 Sudeste 0 1010.2 -0.9 84
2018-05-01 05:00:00 6.3 15 Sudeste 20 Sudeste 0 1010.5 -1 82
2018-05-01 04:00:00 6.5 15 Sudeste 22 Sur 0 1010.9 -0.7 83
2018-05-01 03:00:00 6.6 17 Sur 23 Sur 0 1011.1 -0.3 82
2018-05-01 02:00:00 7.3 15 Sur 23 Sur 0 1011.5 0.2 80
2018-05-01 01:00:00 8.1 14 Sur 20 Sudoeste 0 1011.6 0.7 76
2018-05-01 00:00:00 7.9 13 Sudeste 16 Sudeste 0 1011.4 0.9 78
2018-04-30 23:00:00 10.7 9 Oeste 22 Noroeste 0 1011.3 1.2 65
2018-04-30 22:00:00 10.9 16 Noroeste 27 Oeste 0 1010.9 0.9 59
2018-04-30 21:00:00 11.4 16 Noroeste 31 Noroeste 0 1010.5 0.8 63
2018-04-30 20:00:00 11.6 17 Noroeste 25 Noroeste 0 1010.1 0.8 62
2018-04-30 19:00:00 12.5 4 Noroeste 17 Noroeste 0 1010 0.6 68
2018-04-30 18:00:00 12.5 12 Noroeste 28 Norte 0 1009.7 0.7 66
2018-04-30 17:00:00 11.6 24 Norte 38 Norte 0 1009.3 0.4 68
2018-04-30 16:00:00 11.9 13 Noroeste 33 Oeste 0 1009.4 0.7 68
2018-04-30 15:00:00 13 13 Noroeste 28 Noroeste 0 1009 1.2 71
2018-04-30 14:00:00 10.4 16 Oeste 24 Oeste 0.4 1008.9 1.3 80
2018-04-30 13:00:00 9.1 13 Noroeste 36 Oeste 1.8 1008.7 1.7 79
2018-04-30 12:00:00 11.7 22 Oeste 40 Oeste 0 1007.8 1.3 71
2018-04-30 11:00:00 8.9 16 Sudoeste 36 Oeste 0.2 1007.6 1.9 79
2018-04-30 10:00:00 8.4 17 Oeste 32 Oeste 1 1007 1.7 81
2018-04-30 09:00:00 8.6 26 Oeste 48 Oeste 0.2 1006.5 1.3 75
2018-04-30 08:00:00 8.7 23 Sudoeste 40 Oeste 0 1005.7 0.7 73
2018-04-30 07:00:00 8.6 24 Sudoeste 39 Oeste 0 1005.3 0.4 73
2018-04-30 06:00:00 8.4 22 Sudoeste 37 Oeste 0.2 1005.2 0.2 74
2018-04-30 05:00:00 8.5 21 Sudoeste 35 Oeste 0.4 1005 -0.3 73
2018-04-30 04:00:00 8.7 21 Oeste 44 Sudoeste 0.4 1004.9 0.1 72
2018-04-30 03:00:00 9.2 30 Oeste 39 Oeste 0 1005 0.5 65
2018-04-30 02:00:00 9.3 13 Oeste 32 Oeste 0 1005.3 0.8 69
2018-04-30 01:00:00 9.3 21 Oeste 32 Oeste 0 1004.8 1 71
2018-04-30 00:00:00 9.2 15 Oeste 21 Oeste 0 1004.5 1.4 77
2018-04-29 23:00:00 9 7 Sudoeste 9 Oeste 0 1004.5 1.9 85
2018-04-29 22:00:00 9.2 6 Sudoeste 13 Oeste 0 1003.8 1.7 83
2018-04-29 21:00:00 9 10 Oeste 39 Sudoeste 0.6 1003.1 1.7 83
2018-04-29 20:00:00 9.7 15 Oeste 24 Oeste 0.2 1002.6 1.7 84
2018-04-29 19:00:00 9.2 23 Oeste 51 Oeste 2.8 1002.1 1.3 85
2018-04-29 18:00:00 9.4 -- -- -- -- 1 1001.4 1.2 79
2018-04-29 17:00:00 9.3 9 Sur 44 Oeste 2.8 1000.9 0.7 83
2018-04-29 16:00:00 10.5 31 Oeste 53 Oeste 0.4 1000.8 0.2 75
2018-04-29 15:00:00 13.5 4 Nordeste 14 Nordeste 0 1000.2 -0.3 68
2018-04-29 14:00:00 12.1 6 Este 13 Noroeste 0.2 1000.2 0 72
2018-04-29 13:00:00 11.8 5 Oeste 12 Oeste 0 1000.6 0.8 73
2018-04-29 12:00:00 12.6 4 Norte 8 Noroeste 0 1000.5 0.9 71
2018-04-29 11:00:00 11.3 2 Noroeste 15 Sur 0 1000.2 1 76
2018-04-29 10:00:00 8.6 11 Sudeste 20 Sudeste 0 999.8 1 82
2018-04-29 09:00:00 7 15 Sudeste 22 Sudeste 0 999.6 0.9 86
2018-04-29 08:00:00 5.6 19 Sudeste 24 Sur 0 999.2 0.1 87
2018-04-29 07:00:00 5.2 18 Sudeste 23 Sudeste 0 998.8 -0.5 87
2018-04-29 06:00:00 5.3 16 Sudeste 22 Sudeste 0 998.7 -1.3 87
2018-04-29 05:00:00 5.6 18 Sur 22 Sur 0 999.1 -1.6 86
2018-04-29 04:00:00 5.8 18 Sur 22 Sur 0 999.3 -1.7 86
2018-04-29 03:00:00 6.2 15 Sudeste 22 Sudeste 0 1000 -1.4 85
2018-04-29 02:00:00 6.8 12 Sudeste 23 Sudeste 0 1000.7 -1 84
2018-04-29 01:00:00 7.5 15 Sudeste 20 Sudeste 0 1001 -0.6 83
2018-04-29 00:00:00 8.2 12 Sudeste 18 Sudeste 0 1001.4 -0.3 82
2018-04-28 23:00:00 9.9 10 Este 31 Este 0 1001.7 -0.1 83
2018-04-28 22:00:00 10.8 14 Nordeste 28 Nordeste 0 1001.6 -0.5 80
2018-04-28 21:00:00 11.2 12 Nordeste 31 Nordeste 0 1001.7 -0.6 76
2018-04-28 20:00:00 11.4 17 Nordeste 36 Nordeste 0 1001.8 -0.9 75
2018-04-28 19:00:00 12.3 18 Nordeste 31 Este 0 1002.1 -1 72
2018-04-28 18:00:00 12.5 16 Nordeste 31 Nordeste 0 1002.3 -1.1 73
2018-04-28 17:00:00 11.8 14 Nordeste 30 Nordeste 0 1002.7 -1 73
2018-04-28 16:00:00 13.4 14 Nordeste 30 Nordeste 0 1003.1 -1.3 70
2018-04-28 15:00:00 12.3 12 Norte 27 Nordeste 0 1003.4 -1.2 73
2018-04-28 14:00:00 12.7 7 Nordeste 28 Nordeste 0 1003.7 -1 74
2018-04-28 13:00:00 11.6 8 Norte 23 Nordeste 0 1004.4 -0.5 78
2018-04-28 12:00:00 12.2 6 Norte 19 Este 0.6 1004.6 -0.6 78
2018-04-28 11:00:00 10.9 8 Este 14 Sudeste 0 1004.7 -0.4 78
2018-04-28 10:00:00 10.7 6 Sudeste 14 Sudeste 0 1004.9 -0.4 82
2018-04-28 09:00:00 9.3 12 Sudeste 18 Sudeste 0.2 1005.2 -0.2 85
2018-04-28 08:00:00 9.1 12 Sudeste 18 Sudeste 0 1005.1 -0.8 82
2018-04-28 07:00:00 9.2 12 Sudeste 19 Sudeste 0 1005.3 -1.1 83
2018-04-28 06:00:00 9.8 14 Sudeste 21 Sudeste 0 1005.4 -1.7 82
2018-04-28 05:00:00 10.1 9 Sudeste 12 Sudeste 0 1005.9 -2 80
2018-04-28 04:00:00 10.4 6 Sur 10 Sur 0 1006.4 -1.9 78
2018-04-28 03:00:00 10.7 6 Sur 9 Sur 0 1007.1 -1.8 77
2018-04-28 02:00:00 11.2 2 Sudeste 17 Oeste 0 1007.9 -1.3 71
2018-04-28 01:00:00 11.7 13 Noroeste 21 Noroeste 0 1008.3 -0.7 64
2018-04-28 00:00:00 11.5 9 Oeste 20 Oeste 0 1008.9 0.1 70